Lancaster, Iowa
Current Conditions -  °F | °C
As of 6:15 AM on Thursday 23 Oct 2014 (Local Time) from KOOA Reporting Station
Overcast Overcast  
Wind Chill: 47°   Ceiling: 11000
Heat Index: 50°   Visibility: 10mi
Dew Point: 43°   Wind: 7mph
Humidity: 77%   Direction: 170°S
Pressure: 30.08"   Gusts: NA
Location:  41.331°N, 92.1821°W
Report Text: KOOA 231115Z AUTO 17006KT 10SM SCT070 OVC110 10/06 A3008 RMK AO2 T00980060
Loading
Personal Weather Stations






























Interactive Weather Map
Tropical Storm Tracking
New forecast layout! Learn more

10-Day Weather Forecast

Advertisements
Track Severe Weather on mobile